Time;durP1;ratioP1;P1;durP2;ratioP2;P2;SDS_P1;SDS_P2;PMS_P1;PMS_P2;Temp;Humidity;BMP_temperature;BMP_pressure;BME280_temperature;BME280_humidity;BME280_pressure;Samples;Min_cycle;Max_cycle;Signal;HPM_P1;HPM_P2
2021/11/25 00:01:58;;;;;;;18.80;11.23;;;4.30;95.40;;;;;;5065577;28;20041;-79
2021/11/25 00:04:24;;;;;;;17.02;11.57;;;4.30;95.40;;;;;;5050627;28;20040;-79
2021/11/25 00:06:50;;;;;;;17.83;12.15;;;4.40;95.50;;;;;;5047143;28;20493;-79
2021/11/25 00:09:16;;;;;;;20.80;12.25;;;4.30;95.40;;;;;;5069040;28;20041;-79
2021/11/25 00:11:41;;;;;;;17.88;12.70;;;4.30;95.40;;;;;;5068592;28;20029;-79
2021/11/25 00:14:07;;;;;;;16.55;12.07;;;4.20;95.50;;;;;;5070023;28;20028;-79
2021/11/25 00:16:33;;;;;;;15.85;12.10;;;4.20;95.50;;;;;;5070402;28;20020;-79
2021/11/25 00:18:58;;;;;;;18.40;11.82;;;4.10;95.50;;;;;;5051412;28;20121;-80
2021/11/25 00:21:24;;;;;;;19.80;12.20;;;4.10;95.50;;;;;;5070625;28;20446;-79
2021/11/25 00:23:50;;;;;;;15.68;11.20;;;4.10;95.50;;;;;;5053316;28;20041;-79
2021/11/25 00:26:17;;;;;;;20.35;12.85;;;4.10;95.50;;;;;;5071548;28;20033;-79
2021/11/25 00:28:44;;;;;;;15.80;11.45;;;4.10;95.60;;;;;;5054892;28;20389;-79
2021/11/25 00:31:09;;;;;;;18.45;11.65;;;4.00;95.60;;;;;;5073400;28;20017;-79
2021/11/25 00:33:35;;;;;;;20.38;13.02;;;4.00;95.60;;;;;;5070081;28;20025;-79
2021/11/25 00:36:01;;;;;;;18.63;11.40;;;4.00;95.60;;;;;;5068025;28;20032;-79
2021/11/25 00:38:27;;;;;;;17.33;11.85;;;4.00;95.60;;;;;;5040612;28;20031;-79
2021/11/25 00:40:53;;;;;;;21.30;13.10;;;3.90;95.60;;;;;;5061422;28;20469;-79
2021/11/25 00:43:20;;;;;;;18.40;12.38;;;3.90;95.50;;;;;;5052489;28;20035;-79
2021/11/25 00:45:47;;;;;;;20.08;11.85;;;3.80;95.50;;;;;;5051756;28;20140;-79
2021/11/25 00:48:12;;;;;;;19.55;12.48;;;3.70;95.50;;;;;;5039436;28;21070;-80
2021/11/25 00:50:39;;;;;;;19.30;12.38;;;3.70;95.60;;;;;;5056478;28;20053;-79
2021/11/25 00:53:04;;;;;;;18.33;11.85;;;3.60;95.90;;;;;;5063549;28;20047;-79
2021/11/25 00:55:30;;;;;;;17.77;11.63;;;3.60;95.70;;;;;;5043381;28;20025;-79
2021/11/25 00:57:56;;;;;;;21.25;13.05;;;3.60;95.60;;;;;;5072891;28;20056;-79
2021/11/25 01:00:23;;;;;;;20.52;12.48;;;3.50;95.60;;;;;;5056886;28;20047;-79
2021/11/25 01:02:50;;;;;;;15.18;10.65;;;3.50;95.60;;;;;;5050968;28;20044;-79
2021/11/25 01:05:16;;;;;;;15.35;11.02;;;3.40;95.50;;;;;;5050171;28;20102;-79
2021/11/25 01:07:43;;;;;;;19.98;12.10;;;3.40;95.50;;;;;;5072245;28;20174;-79
2021/11/25 01:10:13;;;;;;;18.77;12.90;;;3.40;95.40;;;;;;5071746;28;20078;-79
2021/11/25 01:12:39;;;;;;;25.00;12.93;;;3.40;95.40;;;;;;5055387;28;20025;-79
2021/11/25 01:15:07;;;;;;;23.67;14.52;;;3.40;95.40;;;;;;5051719;28;20029;-79
2021/11/25 01:17:33;;;;;;;20.77;13.50;;;3.30;95.40;;;;;;5071125;28;20025;-79
2021/11/25 01:19:58;;;;;;;20.10;12.85;;;3.30;95.40;;;;;;5046463;28;20563;-79
2021/11/25 01:22:24;;;;;;;20.08;13.45;;;3.30;95.50;;;;;;5041071;28;20151;-79
2021/11/25 01:24:50;;;;;;;23.23;13.05;;;3.30;95.50;;;;;;5068111;28;20470;-79
2021/11/25 01:27:16;;;;;;;19.95;13.35;;;3.20;95.40;;;;;;5051172;28;20040;-79
2021/11/25 01:29:43;;;;;;;24.38;15.10;;;3.20;95.50;;;;;;5051019;28;20107;-79
2021/11/25 01:32:08;;;;;;;19.27;12.75;;;3.20;95.50;;;;;;5052109;28;20481;-79
2021/11/25 01:34:34;;;;;;;19.08;13.02;;;3.20;95.50;;;;;;5032008;28;20036;-79
2021/11/25 01:37:00;;;;;;;19.08;13.38;;;3.20;95.60;;;;;;5051530;28;20027;-79
2021/11/25 01:39:26;;;;;;;19.50;13.68;;;3.20;95.70;;;;;;5067836;28;20041;-79
2021/11/25 01:41:52;;;;;;;19.27;13.32;;;3.20;96.00;;;;;;5035940;28;20116;-79
2021/11/25 01:44:17;;;;;;;19.70;13.38;;;3.30;95.80;;;;;;5053733;28;20057;-79
2021/11/25 01:46:44;;;;;;;30.80;16.58;;;3.30;95.80;;;;;;5058294;28;20524;-79
2021/11/25 01:49:09;;;;;;;23.65;14.35;;;3.30;95.80;;;;;;5038929;28;20025;-79
2021/11/25 01:51:35;;;;;;;24.23;14.10;;;3.30;95.90;;;;;;5075354;28;20116;-79
2021/11/25 01:54:01;;;;;;;26.50;14.43;;;3.30;95.90;;;;;;5056215;28;20031;-79
2021/11/25 01:56:26;;;;;;;20.15;14.35;;;3.40;96.00;;;;;;5074881;28;20522;-79
2021/11/25 01:58:52;;;;;;;18.38;11.85;;;3.40;96.00;;;;;;5074896;28;20104;-79
2021/11/25 02:01:21;;;;;;;19.73;13.73;;;3.40;96.00;;;;;;5048898;28;20119;-79
2021/11/25 02:03:49;;;;;;;20.48;13.15;;;3.50;96.00;;;;;;5066577;28;20108;-79
2021/11/25 02:06:17;;;;;;;21.17;13.23;;;3.50;96.30;;;;;;5052511;28;20041;-79
2021/11/25 02:08:43;;;;;;;21.92;13.68;;;3.50;96.00;;;;;;5057242;28;20032;-79
2021/11/25 02:11:09;;;;;;;19.35;13.52;;;3.50;96.10;;;;;;5041361;28;20548;-79
2021/11/25 02:13:34;;;;;;;22.13;13.02;;;3.50;96.10;;;;;;5039860;28;20116;-79
2021/11/25 02:16:00;;;;;;;18.27;12.75;;;3.50;96.10;;;;;;5034673;28;20033;-79
2021/11/25 02:18:26;;;;;;;18.15;12.50;;;3.50;96.00;;;;;;5049425;28;20107;-79
2021/11/25 02:20:58;;;;;;;17.92;11.85;;;3.50;96.00;;;;;;5057272;28;20024;-79
2021/11/25 02:23:25;;;;;;;20.73;12.48;;;3.50;95.90;;;;;;5075461;28;20037;-79
2021/11/25 02:25:52;;;;;;;19.20;12.65;;;3.50;95.80;;;;;;5056649;28;20119;-79
2021/11/25 02:28:19;;;;;;;24.30;13.88;;;3.40;95.70;;;;;;5075310;28;20035;-79
2021/11/25 02:30:46;;;;;;;18.25;13.43;;;3.40;95.70;;;;;;5055647;28;20089;-79
2021/11/25 02:33:12;;;;;;;21.65;12.80;;;3.20;95.70;;;;;;5071406;28;20139;-79
2021/11/25 02:35:41;;;;;;;20.45;11.77;;;3.10;95.70;;;;;;5053123;28;20322;-79
2021/11/25 02:38:08;;;;;;;19.48;12.15;;;3.10;95.70;;;;;;5054703;28;20032;-79
2021/11/25 02:40:46;;;;;;;21.35;13.60;;;3.10;95.80;;;;;;5055914;28;20124;-79
2021/11/25 02:43:15;;;;;;;21.87;13.20;;;3.00;95.70;;;;;;5072842;28;20032;-79
2021/11/25 02:45:58;;;;;;;24.10;15.37;;;3.00;95.70;;;;;;5039243;28;20052;-79
2021/11/25 02:48:27;;;;;;;21.80;13.15;;;2.90;96.00;;;;;;5068342;28;20370;-79
2021/11/25 02:50:55;;;;;;;20.10;14.27;;;2.90;95.70;;;;;;5065346;28;20032;-79
2021/11/25 02:53:24;;;;;;;23.40;14.45;;;2.80;95.70;;;;;;5065363;28;20028;-79
2021/11/25 02:55:53;;;;;;;19.90;13.57;;;2.80;95.70;;;;;;5063705;28;20109;-79
2021/11/25 02:58:19;;;;;;;;;;;2.80;95.70;;;;;;5064965;28;20060;-79
2021/11/25 03:00:47;;;;;;;24.60;13.90;;;2.70;95.70;;;;;;5046756;28;19919;-79
2021/11/25 03:03:15;;;;;;;22.55;14.77;;;2.60;95.90;;;;;;5047934;28;20029;-79
2021/11/25 03:05:42;;;;;;;26.05;14.68;;;2.60;95.90;;;;;;5042519;28;20040;-79
2021/11/25 03:08:10;;;;;;;24.70;15.40;;;2.60;95.90;;;;;;5065541;28;20123;-79
2021/11/25 03:10:39;;;;;;;28.42;16.08;;;2.60;95.90;;;;;;5051990;28;20021;-79
2021/11/25 03:13:06;;;;;;;25.50;15.20;;;2.50;95.80;;;;;;5068044;28;20021;-79
2021/11/25 03:15:33;;;;;;;23.35;15.20;;;2.40;95.80;;;;;;5066114;28;20115;-79
2021/11/25 03:17:59;;;;;;;27.70;16.20;;;2.40;95.70;;;;;;5033760;28;20119;-79
2021/11/25 03:20:25;;;;;;;27.90;17.23;;;2.40;95.70;;;;;;5034099;28;20468;-79
2021/11/25 03:22:50;;;;;;;40.83;16.77;;;2.30;95.70;;;;;;5067404;28;20115;-79
2021/11/25 03:25:16;;;;;;;26.25;16.42;;;2.30;95.70;;;;;;5033190;28;20131;-79
2021/11/25 03:27:42;;;;;;;21.67;14.48;;;2.20;95.80;;;;;;5066988;28;20036;-79
2021/11/25 03:30:08;;;;;;;20.92;13.68;;;2.20;95.80;;;;;;5068890;28;20032;-79
2021/11/25 03:32:34;;;;;;;19.77;12.98;;;2.20;95.80;;;;;;5051873;28;20035;-79
2021/11/25 03:34:59;;;;;;;22.38;14.60;;;2.20;96.00;;;;;;5032977;28;20036;-78
2021/11/25 03:37:25;;;;;;;23.08;14.52;;;2.10;95.60;;;;;;5066958;28;20032;-78
2021/11/25 03:39:51;;;;;;;29.63;16.52;;;2.10;95.60;;;;;;5047723;28;20083;-79
2021/11/25 03:42:17;;;;;;;26.55;15.68;;;2.20;95.60;;;;;;5064597;28;20021;-79
2021/11/25 03:44:45;;;;;;;25.85;16.65;;;2.10;95.50;;;;;;5066477;28;20023;-79
2021/11/25 03:47:12;;;;;;;30.70;17.33;;;2.10;95.50;;;;;;5067821;28;20604;-79
2021/11/25 03:49:38;;;;;;;31.55;18.20;;;2.10;95.50;;;;;;5052135;28;20733;-78
2021/11/25 03:52:05;;;;;;;31.67;17.30;;;2.10;95.50;;;;;;5052649;28;20048;-79
2021/11/25 03:54:30;;;;;;;27.48;17.45;;;2.10;95.60;;;;;;5070291;28;20056;-79
2021/11/25 03:56:56;;;;;;;28.55;16.95;;;2.00;95.60;;;;;;5071759;28;20461;-79
2021/11/25 03:59:22;;;;;;;27.90;16.25;;;2.00;95.70;;;;;;5025111;28;20036;-79
2021/11/25 04:01:47;;;;;;;29.48;17.02;;;2.00;95.80;;;;;;5052681;28;20037;-78
2021/11/25 04:04:13;;;;;;;24.35;14.38;;;2.00;95.80;;;;;;5068803;28;20063;-78
2021/11/25 04:06:39;;;;;;;25.65;16.95;;;2.00;95.80;;;;;;5064481;28;20098;-78
2021/11/25 04:09:05;;;;;;;27.58;16.02;;;2.00;95.80;;;;;;5050459;28;20585;-78
2021/11/25 04:11:31;;;;;;;23.80;15.85;;;2.00;95.80;;;;;;5067228;28;20052;-78
2021/11/25 04:14:00;;;;;;;28.13;16.70;;;1.90;95.70;;;;;;5049666;28;20025;-78
2021/11/25 04:16:25;;;;;;;27.08;16.75;;;2.00;95.70;;;;;;5045776;28;20409;-78
2021/11/25 04:18:51;;;;;;;24.65;15.82;;;1.90;95.60;;;;;;5041013;28;20040;-78
2021/11/25 04:21:17;;;;;;;26.95;16.13;;;1.90;95.70;;;;;;5046198;28;20060;-78
2021/11/25 04:23:42;;;;;;;26.67;16.13;;;1.90;95.70;;;;;;5049619;28;20045;-78
2021/11/25 04:26:08;;;;;;;28.85;18.13;;;1.90;95.70;;;;;;5046535;28;20873;-78
2021/11/25 04:28:34;;;;;;;26.10;16.65;;;1.90;95.80;;;;;;5028608;28;20036;-76
2021/11/25 04:36:27;;;;;;;21.98;14.93;;;1.80;95.70;;;;;;5070706;28;20081;-76
2021/11/25 04:38:53;;;;;;;25.10;15.23;;;1.80;95.90;;;;;;5070560;28;20020;-76
2021/11/25 04:41:19;;;;;;;24.38;15.85;;;1.80;95.60;;;;;;5047080;28;20033;-76
2021/11/25 04:43:45;;;;;;;25.23;15.30;;;1.80;95.60;;;;;;5034815;28;20500;-76
2021/11/25 04:46:11;;;;;;;26.17;15.73;;;1.70;95.60;;;;;;5031499;28;20090;-76
2021/11/25 04:48:36;;;;;;;26.42;17.00;;;1.70;95.60;;;;;;5070506;28;20024;-76
2021/11/25 04:51:02;;;;;;;28.02;16.60;;;1.70;95.60;;;;;;5053402;28;20040;-77
2021/11/25 04:53:28;;;;;;;25.00;16.60;;;1.70;95.60;;;;;;5035133;28;20120;-76
2021/11/25 04:55:54;;;;;;;26.73;16.70;;;1.70;95.70;;;;;;5050823;28;20101;-76
2021/11/25 04:58:19;;;;;;;27.85;17.40;;;1.70;95.70;;;;;;5067983;28;20524;-76
2021/11/25 05:00:46;;;;;;;35.22;18.13;;;1.70;95.60;;;;;;5069860;28;20028;-76
2021/11/25 05:03:12;;;;;;;29.20;17.95;;;1.60;95.60;;;;;;5067882;28;20043;-76
2021/11/25 05:05:39;;;;;;;32.08;17.08;;;1.60;95.60;;;;;;5068001;28;20051;-76
2021/11/25 05:08:05;;;;;;;27.85;16.05;;;1.60;95.60;;;;;;5051837;28;20039;-76
2021/11/25 05:10:31;;;;;;;27.50;16.95;;;1.50;95.60;;;;;;5064580;28;20086;-76
2021/11/25 05:12:57;;;;;;;27.13;16.42;;;1.50;95.60;;;;;;5043283;28;20421;-76
2021/11/25 05:15:22;;;;;;;25.65;16.70;;;1.50;95.60;;;;;;5064902;28;20025;-76
2021/11/25 05:17:48;;;;;;;26.20;16.70;;;1.50;95.60;;;;;;5040520;28;20498;-76
2021/11/25 05:20:15;;;;;;;30.08;18.63;;;1.50;95.60;;;;;;5066239;28;20024;-75
2021/11/25 05:22:41;;;;;;;27.27;17.77;;;1.40;95.60;;;;;;5067178;28;20101;-76
2021/11/25 05:25:08;;;;;;;34.28;19.80;;;1.40;95.60;;;;;;5067686;28;20016;-76
2021/11/25 05:27:34;;;;;;;36.38;20.60;;;1.40;95.60;;;;;;5068956;28;20028;-76
2021/11/25 05:30:00;;;;;;;30.17;19.00;;;1.40;95.60;;;;;;5068386;28;20224;-76
2021/11/25 05:32:26;;;;;;;32.75;20.08;;;1.40;95.90;;;;;;5046589;28;20029;-75
2021/11/25 05:34:52;;;;;;;30.23;18.08;;;1.30;95.50;;;;;;5050580;28;20108;-76
2021/11/25 05:37:18;;;;;;;24.98;15.95;;;1.30;95.50;;;;;;5048735;28;20128;-76
2021/11/25 05:39:45;;;;;;;25.95;15.57;;;1.30;95.50;;;;;;5040015;28;20056;-76
2021/11/25 05:42:11;;;;;;;30.15;17.55;;;1.30;95.40;;;;;;5073219;28;20303;-76
2021/11/25 05:44:38;;;;;;;30.30;17.20;;;1.30;95.40;;;;;;5062084;28;20543;-76
2021/11/25 05:47:04;;;;;;;27.67;17.77;;;1.30;95.50;;;;;;5066249;28;20036;-76
2021/11/25 05:49:30;;;;;;;23.27;15.35;;;1.30;95.60;;;;;;5054520;28;20035;-76
2021/11/25 05:51:56;;;;;;;35.45;16.67;;;1.30;95.60;;;;;;5062749;28;20042;-76
2021/11/25 05:54:22;;;;;;;24.92;15.80;;;1.30;95.60;;;;;;5035442;28;20036;-75
2021/11/25 05:56:48;;;;;;;51.80;16.35;;;1.30;95.60;;;;;;5025376;28;20103;-76
2021/11/25 05:59:14;;;;;;;33.10;16.25;;;1.30;95.90;;;;;;5051176;28;20032;-76
2021/11/25 06:01:39;;;;;;;29.30;17.40;;;1.30;95.60;;;;;;5064602;28;20386;-76
2021/11/25 06:04:05;;;;;;;28.70;17.17;;;1.30;95.60;;;;;;5027460;28;20044;-75
2021/11/25 06:06:30;;;;;;;23.02;13.88;;;1.20;95.60;;;;;;5066914;28;20040;-76
2021/11/25 06:08:56;;;;;;;28.63;15.00;;;1.20;95.60;;;;;;5045700;28;20040;-76
2021/11/25 06:11:22;;;;;;;41.30;16.70;;;1.20;95.60;;;;;;5062185;28;20028;-76
2021/11/25 06:13:48;;;;;;;21.27;14.77;;;1.20;95.70;;;;;;5066239;28;20078;-77
2021/11/25 06:16:14;;;;;;;29.05;15.50;;;1.20;95.60;;;;;;5029276;28;21587;-76
2021/11/25 06:18:39;;;;;;;23.92;15.68;;;1.20;95.60;;;;;;5058749;28;20037;-76
2021/11/25 06:21:05;;;;;;;21.50;15.05;;;1.20;95.60;;;;;;5063900;28;20047;-76
2021/11/25 06:23:32;;;;;;;21.20;15.05;;;1.20;95.60;;;;;;5038591;28;20492;-76
2021/11/25 06:25:57;;;;;;;29.80;14.90;;;1.20;95.60;;;;;;5066908;28;20044;-76
2021/11/25 06:28:23;;;;;;;23.85;14.77;;;1.20;95.70;;;;;;5065770;28;20036;-76
2021/11/25 06:30:49;;;;;;;23.70;16.30;;;1.20;95.70;;;;;;5069442;28;20024;-76
2021/11/25 06:33:14;;;;;;;22.40;15.55;;;1.20;95.70;;;;;;5052081;28;20035;-76
2021/11/25 06:35:40;;;;;;;23.20;14.95;;;1.30;95.80;;;;;;5052785;28;20020;-76
2021/11/25 06:38:07;;;;;;;22.15;16.10;;;1.20;95.80;;;;;;5050683;28;20419;-76
2021/11/25 06:40:34;;;;;;;18.98;14.38;;;1.20;95.80;;;;;;5068881;28;20024;-76
2021/11/25 06:43:03;;;;;;;20.60;14.13;;;1.20;95.80;;;;;;5070521;28;20149;-76
2021/11/25 06:45:28;;;;;;;23.83;15.27;;;1.30;95.90;;;;;;5084871;28;20489;-76
2021/11/25 06:47:55;;;;;;;20.65;15.23;;;1.30;95.90;;;;;;5068744;28;20028;-76
2021/11/25 06:50:22;;;;;;;20.75;14.18;;;1.30;95.90;;;;;;5072076;28;20105;-77
2021/11/25 06:52:48;;;;;;;18.95;13.98;;;1.40;96.00;;;;;;5068890;28;20032;-77
2021/11/25 06:55:16;;;;;;;20.35;14.77;;;1.30;96.00;;;;;;5063321;28;20177;-76
2021/11/25 06:57:43;;;;;;;18.98;13.68;;;1.40;96.00;;;;;;5067520;28;20048;-76
2021/11/25 07:00:14;;;;;;;24.08;14.32;;;1.40;96.00;;;;;;5044630;28;20028;-76
2021/11/25 07:02:39;;;;;;;23.80;15.18;;;1.50;95.90;;;;;;5064643;28;20021;-76
2021/11/25 07:05:06;;;;;;;24.13;15.23;;;1.50;95.90;;;;;;5025997;28;20031;-76
2021/11/25 07:07:33;;;;;;;28.25;16.45;;;1.50;95.90;;;;;;5056380;28;20112;-76
2021/11/25 07:09:58;;;;;;;25.88;15.90;;;1.50;95.90;;;;;;5046861;28;20147;-76
2021/11/25 07:12:24;;;;;;;25.27;15.98;;;1.50;95.90;;;;;;5065592;28;20120;-76
2021/11/25 07:14:50;;;;;;;21.98;14.48;;;1.60;96.00;;;;;;5045565;28;20032;-77
2021/11/25 07:17:15;;;;;;;24.45;15.98;;;1.60;96.00;;;;;;5035533;28;20119;-76
2021/11/25 07:19:41;;;;;;;25.90;15.90;;;1.60;96.00;;;;;;5071202;28;20044;-76
2021/11/25 07:22:06;;;;;;;21.10;14.82;;;1.60;96.00;;;;;;5036977;28;20033;-76
2021/11/25 07:24:32;;;;;;;21.92;15.25;;;1.60;96.00;;;;;;5037783;28;20024;-76
2021/11/25 07:26:58;;;;;;;27.55;18.73;;;1.60;96.00;;;;;;5051457;28;20107;-77
2021/11/25 07:29:24;;;;;;;23.90;15.60;;;1.60;96.00;;;;;;5052954;28;20036;-76
2021/11/25 07:31:50;;;;;;;28.45;16.48;;;1.70;96.00;;;;;;5065738;28;20465;-76
2021/11/25 07:34:16;;;;;;;25.20;16.45;;;1.70;96.00;;;;;;5070413;28;20524;-76
2021/11/25 07:36:42;;;;;;;24.33;16.30;;;1.70;96.10;;;;;;5046012;28;20025;-76
2021/11/25 07:39:07;;;;;;;24.80;15.25;;;1.70;96.10;;;;;;5043791;28;20385;-76
2021/11/25 07:41:33;;;;;;;26.05;16.83;;;1.70;96.20;;;;;;5037123;28;20040;-75
2021/11/25 07:43:59;;;;;;;30.27;16.38;;;1.70;96.20;;;;;;5045080;28;20493;-75
2021/11/25 07:46:25;;;;;;;22.77;15.85;;;1.80;96.20;;;;;;5044115;28;20040;-75
2021/11/25 07:48:51;;;;;;;24.08;16.27;;;1.80;96.20;;;;;;5034734;28;20036;-75
2021/11/25 07:51:16;;;;;;;21.85;15.48;;;1.80;96.30;;;;;;5049187;28;20017;-75
2021/11/25 07:53:42;;;;;;;23.83;15.63;;;1.90;96.30;;;;;;5047968;28;20032;-76
2021/11/25 07:56:09;;;;;;;22.83;14.70;;;1.90;96.30;;;;;;5056692;28;20029;-76
2021/11/25 07:58:34;;;;;;;23.08;15.57;;;2.00;96.30;;;;;;5056332;28;20060;-76
2021/11/25 08:01:00;;;;;;;28.20;17.33;;;2.00;96.20;;;;;;5056835;28;20117;-76
2021/11/25 08:03:26;;;;;;;24.23;16.75;;;2.00;96.20;;;;;;5056766;28;20035;-76
2021/11/25 08:05:53;;;;;;;30.10;18.35;;;2.00;96.20;;;;;;5050860;28;20119;-76
2021/11/25 08:08:19;;;;;;;25.15;15.88;;;2.00;96.30;;;;;;5050939;28;20029;-77
2021/11/25 08:10:45;;;;;;;28.08;16.95;;;2.00;96.30;;;;;;5032687;28;20029;-76
2021/11/25 08:13:12;;;;;;;28.23;16.58;;;2.00;96.30;;;;;;5048668;28;20097;-76
2021/11/25 08:15:37;;;;;;;31.60;17.80;;;2.10;96.40;;;;;;5065885;28;20067;-76
2021/11/25 08:18:04;;;;;;;31.15;18.40;;;2.10;96.40;;;;;;5046040;28;20032;-76
2021/11/25 08:20:31;;;;;;;29.77;17.38;;;2.20;96.40;;;;;;5053369;28;20043;-76
2021/11/25 08:22:57;;;;;;;38.97;21.63;;;2.20;96.30;;;;;;5046580;28;20040;-76
2021/11/25 08:25:24;;;;;;;42.35;23.27;;;2.30;96.30;;;;;;5063257;28;20373;-77
2021/11/25 08:27:54;;;;;;;37.08;22.02;;;2.30;96.30;;;;;;5029415;28;20035;-76
2021/11/25 08:30:21;;;;;;;41.70;23.42;;;2.30;96.30;;;;;;5045286;28;20033;-76
2021/11/25 08:32:48;;;;;;;38.13;22.10;;;2.40;96.30;;;;;;5046563;28;20021;-77
2021/11/25 08:35:13;;;;;;;44.00;24.60;;;2.40;96.30;;;;;;5060022;28;20028;-77
2021/11/25 08:37:40;;;;;;;34.28;22.40;;;2.40;96.40;;;;;;5048049;28;20070;-76
2021/11/25 08:40:06;;;;;;;41.33;23.13;;;2.40;96.40;;;;;;5043845;28;20029;-76
2021/11/25 08:42:32;;;;;;;40.78;22.73;;;2.50;96.50;;;;;;5031447;28;20029;-77
2021/11/25 08:44:58;;;;;;;41.30;23.83;;;2.50;96.50;;;;;;5041346;28;20063;-77
2021/11/25 08:47:23;;;;;;;35.47;21.70;;;2.50;96.50;;;;;;5061448;28;20028;-76
2021/11/25 08:49:51;;;;;;;36.50;23.35;;;2.60;96.50;;;;;;5034863;28;20036;-77
2021/11/25 08:52:17;;;;;;;38.42;23.15;;;2.60;96.50;;;;;;5038294;28;20111;-76
2021/11/25 08:54:43;;;;;;;49.20;27.63;;;2.60;96.50;;;;;;5049944;28;20488;-76
2021/11/25 08:57:08;;;;;;;36.60;24.00;;;2.70;96.60;;;;;;5071971;28;20040;-77
2021/11/25 08:59:34;;;;;;;37.53;22.50;;;2.70;96.60;;;;;;5036855;28;20533;-77
2021/11/25 09:02:00;;;;;;;33.72;22.95;;;2.70;96.70;;;;;;5054898;28;20027;-77
2021/11/25 09:04:27;;;;;;;37.92;24.50;;;2.80;96.70;;;;;;5054112;28;20116;-76
2021/11/25 09:06:53;;;;;;;36.72;23.42;;;2.80;96.70;;;;;;5066143;28;20025;-76
2021/11/25 09:09:19;;;;;;;39.60;24.80;;;2.90;96.80;;;;;;5034136;28;20461;-76
2021/11/25 09:11:44;;;;;;;34.38;21.98;;;2.80;96.70;;;;;;5066344;28;20117;-76
2021/11/25 09:14:10;;;;;;;35.55;22.95;;;2.90;96.80;;;;;;5054679;28;20028;-76
2021/11/25 09:16:36;;;;;;;38.38;23.95;;;3.00;96.80;;;;;;5055088;28;20029;-76
2021/11/25 09:19:02;;;;;;;41.58;26.83;;;3.00;96.80;;;;;;5037541;28;20036;-76
2021/11/25 09:21:29;;;;;;;44.05;27.27;;;3.10;96.80;;;;;;5041900;28;20028;-77
2021/11/25 09:23:59;;;;;;;44.40;27.63;;;3.10;96.80;;;;;;5044748;28;20039;-76
2021/11/25 09:26:25;;;;;;;49.08;31.33;;;3.20;96.80;;;;;;5042443;28;20031;-77
2021/11/25 09:28:51;;;;;;;48.47;31.30;;;3.20;96.80;;;;;;5072643;28;20103;-77
2021/11/25 09:31:18;;;;;;;48.33;30.30;;;3.20;96.80;;;;;;5036649;28;20068;-77
2021/11/25 09:33:44;;;;;;;55.42;32.20;;;3.20;96.80;;;;;;5037434;28;20027;-76
2021/11/25 09:36:10;;;;;;;53.10;32.95;;;3.20;96.90;;;;;;5065594;28;20037;-77
2021/11/25 09:38:36;;;;;;;45.05;30.63;;;3.30;97.00;;;;;;5049395;28;20146;-77
2021/11/25 09:41:02;;;;;;;53.63;32.33;;;3.30;97.00;;;;;;5065765;28;20595;-78
2021/11/25 09:43:28;;;;;;;52.85;32.22;;;3.30;97.00;;;;;;5054855;28;20020;-78
2021/11/25 09:45:55;;;;;;;43.78;28.90;;;3.30;97.00;;;;;;5071912;28;20108;-76
2021/11/25 09:48:24;;;;;;;47.78;31.00;;;3.40;97.10;;;;;;5054758;28;20021;-76
2021/11/25 09:50:52;;;;;;;43.13;28.30;;;3.40;97.10;;;;;;5072075;28;20077;-77
2021/11/25 09:53:21;;;;;;;49.55;30.05;;;3.40;97.10;;;;;;5072311;28;20439;-77
2021/11/25 09:55:48;;;;;;;43.60;28.33;;;3.40;97.20;;;;;;5048798;28;20067;-77
2021/11/25 09:58:17;;;;;;;51.58;31.30;;;3.50;97.20;;;;;;5032553;28;20084;-77
2021/11/25 10:00:56;;;;;;;39.03;27.63;;;3.60;97.20;;;;;;5050941;28;20120;-77
2021/11/25 10:03:22;;;;;;;45.25;30.52;;;3.70;97.20;;;;;;5052713;28;20474;-77
2021/11/25 10:05:54;;;;;;;49.45;30.90;;;3.80;97.20;;;;;;5072102;28;20037;-77
2021/11/25 10:08:36;;;;;;;47.10;29.95;;;3.80;97.20;;;;;;5075445;28;20108;-77
2021/11/25 10:11:05;;;;;;;46.55;29.67;;;3.90;97.20;;;;;;5075968;28;20052;-77
2021/11/25 10:13:55;;;;;;;44.65;29.25;;;4.00;97.20;;;;;;5075436;28;20020;-77
2021/11/25 10:16:29;;;;;;;45.25;29.42;;;4.00;97.10;;;;;;5054364;28;20444;-77
2021/11/25 10:18:57;;;;;;;51.42;30.85;;;4.10;97.10;;;;;;5062413;28;20089;-77
2021/11/25 10:21:26;;;;;;;45.20;29.88;;;4.10;97.10;;;;;;5075869;28;20017;-77
2021/11/25 10:23:54;;;;;;;53.58;31.27;;;4.20;97.10;;;;;;5074603;28;20029;-77
2021/11/25 10:26:26;;;;;;;40.13;26.83;;;4.20;97.10;;;;;;5076628;28;20142;-77
2021/11/25 10:28:57;;;;;;;44.42;29.13;;;4.30;97.10;;;;;;5074725;28;20021;-77
2021/11/25 10:31:37;;;;;;;51.58;31.60;;;4.30;97.10;;;;;;5074800;28;20020;-77
2021/11/25 10:34:14;;;;;;;51.97;32.22;;;4.40;97.10;;;;;;5074775;28;20024;-77
2021/11/25 10:41:55;;;;;;;48.58;29.35;;;4.40;97.20;;;;;;5076389;28;20040;-77
2021/11/25 10:44:38;;;;;;;48.55;31.15;;;4.40;97.20;;;;;;5076032;28;20149;-76
2021/11/25 10:47:12;;;;;;;44.72;30.48;;;4.40;97.30;;;;;;5074254;28;20095;-76
2021/11/25 10:49:47;;;;;;;46.83;30.33;;;4.40;97.30;;;;;;5074436;28;20771;-77
2021/11/25 10:52:20;;;;;;;44.00;30.08;;;4.50;97.40;;;;;;5068376;28;20025;-76
2021/11/25 10:54:55;;;;;;;48.70;32.03;;;4.50;97.30;;;;;;5064808;28;20024;-77
2021/11/25 10:57:23;;;;;;;45.88;30.13;;;4.50;97.30;;;;;;5063643;28;20135;-77
2021/11/25 10:59:51;;;;;;;52.70;31.90;;;4.50;97.30;;;;;;5071539;28;20470;-76
2021/11/25 11:02:23;;;;;;;44.45;29.15;;;4.50;97.40;;;;;;5074104;28;20029;-77
2021/11/25 11:04:49;;;;;;;48.08;30.33;;;4.50;97.40;;;;;;5074220;28;20420;-77
2021/11/25 11:07:27;;;;;;;50.00;30.83;;;4.50;97.50;;;;;;5057401;28;20036;-77
2021/11/25 11:09:53;;;;;;;45.08;29.33;;;4.60;97.60;;;;;;5074012;28;20024;-77
2021/11/25 11:12:44;;;;;;;46.03;30.60;;;4.60;97.60;;;;;;5057671;28;20035;-77
2021/11/25 11:15:26;;;;;;;48.70;28.40;;;4.60;97.60;;;;;;5073529;28;20031;-77
2021/11/25 11:18:02;;;;;;;47.50;30.88;;;4.60;97.60;;;;;;5072881;28;20056;-77
2021/11/25 11:20:35;;;;;;;47.50;30.55;;;4.70;97.60;;;;;;5073673;28;20032;-78
2021/11/25 11:23:05;;;;;;;44.72;28.30;;;4.70;97.50;;;;;;5057684;28;20032;-77
2021/11/25 11:25:34;;;;;;;52.78;34.65;;;4.70;97.60;;;;;;5075361;28;20813;-77
2021/11/25 11:28:01;;;;;;;47.25;30.55;;;4.80;97.60;;;;;;5074449;28;20024;-76
2021/11/25 11:30:27;;;;;;;53.70;32.42;;;4.80;97.60;;;;;;5074915;28;20063;-77
2021/11/25 11:32:54;;;;;;;52.22;34.42;;;4.80;97.60;;;;;;5073091;28;20056;-77
2021/11/25 11:35:22;;;;;;;47.97;31.15;;;4.80;97.60;;;;;;5073345;28;20413;-76
2021/11/25 11:37:55;;;;;;;49.13;30.95;;;4.90;97.70;;;;;;5065561;28;20028;-76
2021/11/25 11:40:23;;;;;;;40.50;28.83;;;4.90;97.70;;;;;;5054577;28;20020;-76
2021/11/25 11:42:55;;;;;;;47.80;33.47;;;4.90;97.70;;;;;;5054167;28;20363;-76
2021/11/25 11:45:23;;;;;;;45.60;31.70;;;4.90;98.00;;;;;;5055509;28;20182;-76
2021/11/25 11:47:55;;;;;;;43.50;29.90;;;5.00;97.80;;;;;;5074314;28;20472;-77
2021/11/25 11:50:34;;;;;;;50.13;31.92;;;5.00;97.80;;;;;;5073019;28;20021;-77
2021/11/25 11:53:09;;;;;;;45.53;31.27;;;5.00;97.90;;;;;;5072588;28;20029;-77
2021/11/25 11:55:42;;;;;;;47.13;31.33;;;5.00;97.90;;;;;;5067498;28;20054;-77
2021/11/25 11:58:21;;;;;;;51.83;33.75;;;5.00;97.90;;;;;;5072614;28;20190;-77
2021/11/25 12:00:47;;;;;;;40.97;28.27;;;5.00;98.00;;;;;;5073741;28;20020;-77
2021/11/25 12:03:47;;;;;;;49.25;30.85;;;5.00;98.00;;;;;;5071878;28;20044;-77
2021/11/25 12:06:30;;;;;;;52.15;32.88;;;5.00;98.00;;;;;;5053781;28;20024;-77
2021/11/25 12:08:55;;;;;;;51.63;32.58;;;5.00;98.00;;;;;;5071103;28;20060;-77
2021/11/25 12:11:21;;;;;;;62.90;37.55;;;5.00;98.10;;;;;;5071155;28;20421;-77
2021/11/25 12:14:03;;;;;;;57.75;38.40;;;5.00;98.10;;;;;;5071601;28;20098;-77
2021/11/25 12:16:33;;;;;;;48.10;34.53;;;4.90;98.20;;;;;;5073102;28;20021;-77
2021/11/25 12:19:01;;;;;;;52.78;35.03;;;4.90;98.30;;;;;;5068331;28;20017;-77
2021/11/25 12:21:29;;;;;;;55.95;35.65;;;5.00;98.40;;;;;;5051451;28;20021;-77
2021/11/25 12:24:12;;;;;;;61.63;36.08;;;5.00;98.40;;;;;;5066141;28;20064;-77
2021/11/25 12:27:05;;;;;;;51.20;35.08;;;5.00;98.40;;;;;;5058461;28;20817;-77
2021/11/25 12:29:46;;;;;;;51.95;35.22;;;5.00;98.70;;;;;;5063352;28;20111;-77
2021/11/25 12:32:27;;;;;;;72.57;41.22;;;5.00;98.40;;;;;;5064387;28;20029;-76
2021/11/25 12:35:20;;;;;;;60.00;40.15;;;5.00;98.50;;;;;;5055233;28;20105;-77
2021/11/25 12:37:49;;;;;;;64.07;38.17;;;5.00;98.50;;;;;;5045610;28;20029;-77
2021/11/25 12:40:21;;;;;;;;;;;4.90;98.60;;;;;;5061478;28;20020;-77
2021/11/25 12:42:52;;;;;;;65.75;39.97;;;4.90;98.60;;;;;;5070995;28;19905;-77
2021/11/25 12:45:23;;;;;;;63.72;39.42;;;4.90;98.60;;;;;;5066627;28;20032;-77
2021/11/25 12:48:13;;;;;;;51.60;35.40;;;5.00;98.70;;;;;;5067778;28;20112;-77
2021/11/25 12:50:51;;;;;;;62.15;40.55;;;5.00;98.70;;;;;;5052790;28;20038;-76
2021/11/25 12:53:29;;;;;;;59.25;38.80;;;5.10;98.70;;;;;;5070954;28;20477;-76